createdAt,value
2018-07-26T11:08:07.916Z,210
2018-07-26T11:09:08.407Z,240
2018-07-26T11:10:07.895Z,240
2018-07-26T11:11:08.458Z,240
2018-07-26T11:12:08.393Z,245
2018-07-26T11:13:08.145Z,245
2018-07-26T11:14:08.178Z,240
2018-07-26T11:15:08.785Z,245
2018-07-26T11:16:08.446Z,250
2018-07-26T11:17:07.927Z,245
2018-07-26T11:18:08.164Z,245
2018-07-26T11:19:09.085Z,245
2018-07-26T11:20:08.353Z,245
2018-07-26T11:21:07.745Z,240
2018-07-26T11:22:08.466Z,245
2018-07-26T11:23:10.072Z,245
2018-07-26T11:24:08.761Z,245
2018-07-26T11:25:08.537Z,245
2018-07-26T11:26:08.273Z,245
2018-07-26T11:27:08.695Z,245
2018-07-26T11:28:08.512Z,245
2018-07-26T11:29:08.783Z,245
2018-07-26T11:30:08.475Z,250
2018-07-26T11:31:08.671Z,260
2018-07-26T11:32:08.527Z,260
2018-07-26T11:33:08.547Z,255
2018-07-26T11:34:08.542Z,255
2018-07-26T11:35:08.400Z,245
2018-07-26T11:36:08.840Z,245
2018-07-26T11:37:08.557Z,245
2018-07-26T11:38:08.059Z,250
2018-07-26T11:39:08.578Z,250
2018-07-26T11:40:08.721Z,245
2018-07-26T11:41:08.414Z,245
2018-07-26T11:42:08.591Z,250
2018-07-26T11:43:08.609Z,255
2018-07-26T11:44:08.349Z,255
2018-07-26T11:45:08.824Z,260
2018-07-26T11:46:08.397Z,260
2018-07-26T11:47:08.651Z,270
2018-07-26T11:48:08.799Z,270
2018-07-26T11:49:08.141Z,285
2018-07-26T11:50:08.919Z,280
2018-07-26T11:51:08.223Z,265
2018-07-26T11:52:08.690Z,220
2018-07-26T11:53:08.945Z,210
2018-07-26T11:54:08.480Z,250
2018-07-26T11:55:07.988Z,280
2018-07-26T11:56:08.739Z,285
2018-07-26T11:57:08.625Z,290
2018-07-26T11:58:08.495Z,295
2018-07-26T11:59:08.469Z,230
2018-07-26T12:00:08.677Z,300
2018-07-26T12:01:09.090Z,300
2018-07-26T12:02:07.995Z,295
2018-07-26T12:03:08.530Z,235
2018-07-26T12:04:08.784Z,285
2018-07-26T12:05:08.924Z,275
2018-07-26T12:06:08.595Z,280
2018-07-26T12:07:08.273Z,280
2018-07-26T12:08:08.911Z,280
2018-07-26T12:09:08.547Z,280
2018-07-26T12:10:08.089Z,260
2018-07-26T12:11:08.633Z,235
2018-07-26T12:12:08.574Z,230
2018-07-26T12:13:08.861Z,290
2018-07-26T12:14:08.866Z,225
2018-07-26T12:15:08.986Z,225
2018-07-26T12:16:08.738Z,215
2018-07-26T12:17:08.618Z,220
2018-07-26T12:18:08.377Z,240
2018-07-26T12:19:08.639Z,240
2018-07-26T12:20:09.074Z,270
2018-07-26T12:21:09.208Z,270
2018-07-26T12:22:09.181Z,260
2018-07-26T12:23:09.052Z,200
2018-07-26T12:24:09.179Z,190
2018-07-26T12:25:08.575Z,185
2018-07-26T12:26:09.083Z,185
2018-07-26T12:27:09.552Z,220
2018-07-26T12:28:08.718Z,245
2018-07-26T12:29:08.969Z,245
2018-07-26T12:30:08.858Z,245
2018-07-26T12:31:09.331Z,245
2018-07-26T12:32:08.477Z,245
2018-07-26T12:33:08.990Z,245
2018-07-26T12:34:09.250Z,250
2018-07-26T12:35:09.347Z,235
2018-07-26T12:36:09.092Z,250
2018-07-26T12:37:08.766Z,250
2018-07-26T12:38:08.516Z,255
2018-07-26T12:39:08.519Z,255
2018-07-26T12:40:09.298Z,250
2018-07-26T12:41:08.631Z,250
2018-07-26T12:42:09.303Z,245
2018-07-26T12:43:08.537Z,195
2018-07-26T12:44:09.087Z,230
2018-07-26T12:45:08.522Z,235
2018-07-26T12:46:09.124Z,230
2018-07-26T12:47:09.357Z,185
2018-07-26T12:48:09.339Z,210
2018-07-26T12:49:08.620Z,230
2018-07-26T12:50:08.724Z,255
2018-07-26T12:51:09.239Z,260
2018-07-26T12:52:09.124Z,265
2018-07-26T12:53:08.398Z,275
2018-07-26T12:54:09.414Z,270
2018-07-26T12:55:09.353Z,275
2018-07-26T12:56:08.472Z,265
2018-07-26T12:57:09.205Z,260
2018-07-26T12:58:08.907Z,250
2018-07-26T12:59:09.457Z,245
2018-07-26T13:00:09.175Z,255
2018-07-26T13:01:09.545Z,250
2018-07-26T13:02:09.218Z,260
2018-07-26T13:03:08.712Z,260
2018-07-26T13:04:08.991Z,255
2018-07-26T13:05:09.372Z,250
2018-07-26T13:06:08.777Z,240
2018-07-26T13:07:09.867Z,235
2018-07-26T13:08:08.766Z,230
2018-07-26T13:09:09.024Z,230
2018-07-26T13:10:09.218Z,240
2018-07-26T13:11:09.065Z,245
2018-07-26T13:12:09.269Z,245
2018-07-26T13:13:09.044Z,240
2018-07-26T13:14:09.575Z,240
2018-07-26T13:15:09.554Z,205
2018-07-26T13:16:09.054Z,235
2018-07-26T13:17:09.602Z,230
2018-07-26T13:18:09.081Z,230
2018-07-26T13:19:09.377Z,240
2018-07-26T13:20:09.708Z,205
2018-07-26T13:21:09.425Z,205
2018-07-26T13:22:09.105Z,260
2018-07-26T13:23:09.635Z,230
2018-07-26T13:24:09.389Z,245
2018-07-26T13:25:09.204Z,220
2018-07-26T13:26:08.905Z,250
2018-07-26T13:27:09.511Z,275
2018-07-26T13:28:09.417Z,270
2018-07-26T13:29:08.906Z,255
2018-07-26T13:30:09.149Z,240
2018-07-26T13:31:09.699Z,235
2018-07-26T13:32:09.184Z,230
2018-07-26T13:33:09.184Z,230
2018-07-26T13:34:09.196Z,230
2018-07-26T13:35:09.533Z,230
2018-07-26T13:36:09.310Z,225
2018-07-26T13:37:08.953Z,220
2018-07-26T13:38:09.221Z,215
2018-07-26T13:39:09.224Z,220
2018-07-26T13:40:09.123Z,220
2018-07-26T13:41:09.610Z,220
2018-07-26T13:42:09.518Z,225
2018-07-26T13:43:09.773Z,230
2018-07-26T13:44:09.275Z,230
2018-07-26T13:45:09.476Z,230
2018-07-26T13:46:09.084Z,230
2018-07-26T13:47:09.570Z,230
2018-07-26T13:48:09.555Z,230
2018-07-26T13:49:09.331Z,230
2018-07-26T13:50:09.646Z,215
2018-07-26T13:51:09.629Z,180
2018-07-26T13:52:09.288Z,175
2018-07-26T13:53:09.320Z,170
2018-07-26T13:54:09.665Z,165
2018-07-26T13:55:09.407Z,165
2018-07-26T13:56:09.379Z,165
2018-07-26T13:57:09.594Z,185
2018-07-26T13:58:09.908Z,165
2018-07-26T13:59:09.100Z,195
2018-07-26T14:00:09.438Z,210
2018-07-26T14:01:09.214Z,210
2018-07-26T14:02:09.650Z,210
2018-07-26T14:03:09.647Z,210
2018-07-26T14:04:10.158Z,210
2018-07-26T14:05:09.683Z,210
2018-07-26T14:06:09.750Z,205
2018-07-26T14:07:09.394Z,205
2018-07-26T14:08:09.452Z,200
2018-07-26T14:09:09.448Z,200
2018-07-26T14:10:09.705Z,205
2018-07-26T14:11:09.757Z,210
2018-07-26T14:12:09.716Z,200
2018-07-26T14:13:09.728Z,200
2018-07-26T14:14:09.698Z,200
2018-07-26T14:15:09.560Z,200
2018-07-26T14:16:10.343Z,200
2018-07-26T14:17:09.993Z,200
2018-07-26T14:18:09.538Z,200
2018-07-26T14:19:09.739Z,200
2018-07-26T14:20:10.015Z,205
2018-07-26T14:21:10.092Z,210
2018-07-26T14:22:09.266Z,210
2018-07-26T14:23:09.548Z,210
2018-07-26T14:24:09.565Z,210
2018-07-26T14:25:10.389Z,210
2018-07-26T14:26:10.088Z,210
2018-07-26T14:27:09.844Z,210
2018-07-26T14:28:09.555Z,210
2018-07-26T14:29:09.550Z,210
2018-07-26T14:30:10.133Z,210
2018-07-26T14:31:10.177Z,215
2018-07-26T14:32:09.300Z,215
2018-07-26T14:33:09.830Z,210
2018-07-26T14:34:10.093Z,205
2018-07-26T14:35:09.880Z,200
2018-07-26T14:36:10.195Z,200
2018-07-26T14:37:09.660Z,200
2018-07-26T14:38:09.893Z,190
2018-07-26T14:39:09.905Z,200
2018-07-26T14:40:09.745Z,200
2018-07-26T14:41:09.922Z,195
2018-07-26T14:42:09.668Z,200
2018-07-26T14:43:09.647Z,195
2018-07-26T14:44:09.663Z,165
2018-07-26T14:45:09.653Z,165
2018-07-26T14:46:10.227Z,175
2018-07-26T14:47:10.192Z,210
2018-07-26T14:48:09.685Z,210
2018-07-26T14:49:09.948Z,210
2018-07-26T14:50:09.962Z,215
2018-07-26T14:51:10.030Z,215
2018-07-26T14:52:09.707Z,210
2018-07-26T14:53:10.229Z,210
2018-07-26T14:54:09.988Z,215
2018-07-26T14:55:10.367Z,220
2018-07-26T14:56:09.837Z,225
2018-07-26T14:57:10.008Z,220
2018-07-26T14:58:10.063Z,215
2018-07-26T14:59:10.060Z,210
2018-07-26T15:00:09.776Z,205
2018-07-26T15:01:10.258Z,200
2018-07-26T15:02:09.524Z,195
2018-07-26T15:03:10.310Z,190
2018-07-26T15:04:10.014Z,190
2018-07-26T15:05:10.389Z,185
2018-07-26T15:06:10.261Z,180
2018-07-26T15:07:09.822Z,185
2018-07-26T15:08:10.465Z,150
2018-07-26T15:09:10.076Z,180
2018-07-26T15:10:09.887Z,175
2018-07-26T15:11:10.424Z,180
2018-07-26T15:12:10.368Z,185
2018-07-26T15:13:10.348Z,180
2018-07-26T15:14:10.725Z,180
2018-07-26T15:15:09.913Z,185
2018-07-26T15:16:10.231Z,185
2018-07-26T15:17:09.896Z,185
2018-07-26T15:18:09.658Z,185
2018-07-26T15:19:10.419Z,185
2018-07-26T15:20:09.920Z,185
2018-07-26T15:21:10.273Z,185
2018-07-26T15:22:10.475Z,185
2018-07-26T15:23:10.286Z,180
2018-07-26T15:24:10.178Z,180
2018-07-26T15:25:09.752Z,180
2018-07-26T15:26:10.314Z,180
2018-07-26T15:27:10.228Z,180
2018-07-26T15:28:10.228Z,180
2018-07-26T15:29:09.476Z,180
2018-07-26T15:30:09.772Z,185
2018-07-26T15:31:10.739Z,180
2018-07-26T15:32:10.041Z,180
2018-07-26T15:33:10.512Z,180
2018-07-26T15:34:10.514Z,180
2018-07-26T15:35:10.081Z,180
2018-07-26T15:36:10.064Z,180
2018-07-26T15:37:10.277Z,180
2018-07-26T15:38:09.532Z,180
2018-07-26T15:39:10.049Z,180
2018-07-26T15:40:09.555Z,180
2018-07-26T15:41:10.131Z,175
2018-07-26T15:42:10.379Z,175
2018-07-26T15:43:10.354Z,175
2018-07-26T15:44:10.086Z,175
2018-07-26T15:45:10.794Z,175
2018-07-26T15:46:10.418Z,175
2018-07-26T15:47:10.372Z,175
2018-07-26T15:48:10.378Z,175
2018-07-26T15:49:10.388Z,175
2018-07-26T15:50:10.752Z,170
2018-07-26T15:51:09.982Z,175
2018-07-26T15:52:10.141Z,170
2018-07-26T15:53:10.658Z,170
2018-07-26T15:54:10.398Z,170
2018-07-26T15:55:10.665Z,170
2018-07-26T15:56:09.921Z,175
2018-07-26T15:57:10.172Z,175
2018-07-26T15:58:10.194Z,175
2018-07-26T15:59:09.923Z,175
2018-07-26T16:00:10.061Z,175
2018-07-26T16:01:10.772Z,175
2018-07-26T16:02:10.192Z,175
2018-07-26T16:03:10.460Z,175
2018-07-26T16:04:17.093Z,175
2018-07-26T16:05:10.469Z,175
2018-07-26T16:06:10.503Z,175
2018-07-26T16:07:10.526Z,175
2018-07-26T16:08:10.773Z,175
2018-07-26T16:09:10.774Z,175
2018-07-26T16:10:11.150Z,175
2018-07-26T16:11:10.274Z,170
2018-07-26T16:12:10.541Z,170
2018-07-26T16:13:10.816Z,170
2018-07-26T16:14:10.018Z,170
2018-07-26T16:15:10.803Z,170
2018-07-26T16:16:10.840Z,170
2018-07-26T16:17:10.033Z,170
2018-07-26T16:18:11.530Z,170
2018-07-26T16:19:10.591Z,170
2018-07-26T16:20:10.688Z,170
2018-07-26T16:21:10.381Z,165
2018-07-26T16:22:10.935Z,165
2018-07-26T16:23:10.336Z,165
2018-07-26T16:24:10.363Z,165
2018-07-26T16:25:10.262Z,165
2018-07-26T16:26:10.653Z,165
2018-07-26T16:27:10.125Z,165
2018-07-26T16:28:10.108Z,160
2018-07-26T16:29:10.755Z,150
2018-07-26T16:30:10.785Z,165
2018-07-26T16:31:10.480Z,165
2018-07-26T16:32:10.644Z,165
2018-07-26T16:33:10.423Z,165
2018-07-26T16:34:10.583Z,165
2018-07-26T16:35:10.512Z,165
2018-07-26T16:36:10.474Z,165
2018-07-26T16:37:10.722Z,165
2018-07-26T16:38:10.194Z,165
2018-07-26T16:39:10.969Z,165
2018-07-26T16:40:11.441Z,165
2018-07-26T16:41:11.052Z,165
2018-07-26T16:42:09.947Z,165
2018-07-26T16:43:10.724Z,170
2018-07-26T16:44:10.983Z,165
2018-07-26T16:45:10.440Z,160
2018-07-26T16:46:10.768Z,160
2018-07-26T16:47:10.250Z,160
2018-07-26T16:48:10.463Z,160
2018-07-26T16:49:10.250Z,160
2018-07-26T16:50:10.823Z,160
2018-07-26T16:51:11.120Z,160
2018-07-26T16:52:10.541Z,160
2018-07-26T16:53:10.792Z,160
2018-07-26T16:54:10.545Z,155
2018-07-26T16:55:15.614Z,155
2018-07-26T16:56:10.333Z,155
2018-07-26T16:57:10.553Z,155
2018-07-26T16:58:10.358Z,155
2018-07-26T16:59:10.630Z,155
2018-07-26T17:00:10.898Z,155
2018-07-26T17:01:10.364Z,155
2018-07-26T17:02:10.854Z,150
2018-07-26T17:03:10.840Z,150
2018-07-26T17:04:11.308Z,150
2018-07-26T17:05:10.764Z,150
2018-07-26T17:06:11.026Z,150
2018-07-26T17:07:10.871Z,150
2018-07-26T17:08:11.163Z,150
2018-07-26T17:09:10.688Z,145
2018-07-26T17:10:10.620Z,145
2018-07-26T17:11:10.722Z,145
2018-07-26T17:12:10.430Z,145
2018-07-26T17:13:10.654Z,145
2018-07-26T17:14:11.218Z,140
2018-07-26T17:15:10.856Z,140
2018-07-26T17:16:10.789Z,140
2018-07-26T17:17:10.961Z,140
2018-07-26T17:18:10.956Z,140
2018-07-26T17:19:11.633Z,135
2018-07-26T17:20:11.569Z,135
2018-07-26T17:21:10.799Z,135
2018-07-26T17:22:10.474Z,140
2018-07-26T17:23:10.792Z,135
2018-07-26T17:24:10.746Z,130
2018-07-26T17:25:11.180Z,130
2018-07-26T17:26:10.799Z,130
2018-07-26T17:27:10.489Z,135
2018-07-26T17:28:10.803Z,135
2018-07-26T17:29:10.645Z,130
2018-07-26T17:30:10.965Z,130
2018-07-26T17:31:11.373Z,130
2018-07-26T17:32:10.812Z,130
2018-07-26T17:33:10.795Z,130
2018-07-26T17:34:10.805Z,130
2018-07-26T17:35:11.234Z,125
2018-07-26T17:36:11.191Z,125
2018-07-26T17:37:10.816Z,125
2018-07-26T17:38:11.079Z,125
2018-07-26T17:39:10.313Z,125
2018-07-26T17:40:11.559Z,120
2018-07-26T17:41:11.095Z,120
2018-07-26T17:42:10.331Z,120
2018-07-26T17:43:10.868Z,120
2018-07-26T17:44:11.094Z,120
2018-07-26T17:45:11.514Z,120
2018-07-26T17:46:10.869Z,120
2018-07-26T17:47:11.150Z,115
2018-07-26T17:48:10.943Z,115
2018-07-26T17:49:10.618Z,115
2018-07-26T17:50:11.098Z,115
2018-07-26T17:51:11.460Z,115
2018-07-26T17:52:11.162Z,110
2018-07-26T17:53:10.916Z,110
2018-07-26T17:54:11.172Z,110
2018-07-26T17:55:10.857Z,110
2018-07-26T17:56:10.996Z,110
2018-07-26T17:57:10.943Z,105
2018-07-26T17:58:11.469Z,105
2018-07-26T17:59:11.234Z,105
2018-07-26T18:00:10.806Z,105
2018-07-26T18:01:10.804Z,100
2018-07-26T18:02:10.739Z,100
2018-07-26T18:03:11.509Z,100
2018-07-26T18:04:11.240Z,100
2018-07-26T18:05:11.215Z,95
2018-07-26T18:06:10.856Z,95
2018-07-26T18:07:11.534Z,95
2018-07-26T18:08:11.017Z,95
2018-07-26T18:09:11.259Z,90
2018-07-26T18:10:10.919Z,90
2018-07-26T18:11:11.624Z,90
2018-07-26T18:12:11.027Z,90
2018-07-26T18:13:11.037Z,85
2018-07-26T18:14:11.308Z,85
2018-07-26T18:15:10.928Z,85
2018-07-26T18:16:11.352Z,85
2018-07-26T18:17:11.051Z,80
2018-07-26T18:18:11.056Z,80
2018-07-26T18:19:10.817Z,80
2018-07-26T18:20:11.306Z,75
2018-07-26T18:21:11.448Z,75
2018-07-26T18:22:11.358Z,75
2018-07-26T18:23:10.571Z,75
2018-07-26T18:24:11.346Z,70
2018-07-26T18:25:11.148Z,70
2018-07-26T18:26:11.812Z,70
2018-07-26T18:27:11.211Z,65
2018-07-26T18:28:10.952Z,65
2018-07-26T18:29:11.472Z,65
2018-07-26T18:30:11.391Z,60
2018-07-26T18:31:11.269Z,60
2018-07-26T18:32:11.153Z,60
2018-07-26T18:33:10.621Z,55
2018-07-26T18:34:10.939Z,55
2018-07-26T18:35:10.822Z,55
2018-07-26T18:36:11.482Z,50
2018-07-26T18:37:11.586Z,50
2018-07-26T18:38:11.158Z,50
2018-07-26T18:39:11.423Z,45
2018-07-26T18:40:11.237Z,45
2018-07-26T18:41:10.981Z,45
2018-07-26T18:42:10.967Z,40
2018-07-26T18:43:11.250Z,40
2018-07-26T18:44:11.624Z,40
2018-07-26T18:45:11.651Z,35
2018-07-26T18:46:10.968Z,35
2018-07-26T18:47:11.504Z,35
2018-07-26T18:48:11.482Z,35
2018-07-26T18:49:11.802Z,30
2018-07-26T18:50:11.354Z,30
2018-07-26T18:51:11.210Z,30
2018-07-26T18:52:10.947Z,25
2018-07-26T18:53:10.973Z,25
2018-07-26T18:54:11.220Z,25
2018-07-26T18:55:11.709Z,20
2018-07-26T18:56:11.753Z,20
2018-07-26T18:57:11.511Z,20
2018-07-26T18:58:11.526Z,20
2018-07-26T18:59:11.788Z,15
2018-07-26T19:00:11.564Z,15
2018-07-26T19:01:11.856Z,15
2018-07-26T19:02:11.699Z,15
2018-07-26T19:03:11.103Z,15
2018-07-26T19:04:11.529Z,10
2018-07-26T19:05:11.612Z,10
2018-07-26T19:06:11.659Z,10
2018-07-26T19:07:11.340Z,10
2018-07-26T19:08:11.581Z,10
2018-07-26T19:09:11.092Z,10
2018-07-26T19:10:11.399Z,5
2018-07-26T19:11:11.436Z,5
2018-07-26T19:12:11.341Z,5
2018-07-26T19:13:11.803Z,5
2018-07-26T19:14:11.120Z,5
2018-07-26T19:15:11.175Z,5
2018-07-26T19:16:11.642Z,5
2018-07-26T19:17:11.457Z,5
2018-07-26T19:18:11.646Z,0
2018-07-26T19:19:11.640Z,0
2018-07-26T19:20:11.528Z,0
2018-07-26T19:21:11.403Z,0
2018-07-26T19:22:11.146Z,0
2018-07-26T19:23:11.403Z,0
2018-07-26T19:24:11.722Z,0
2018-07-26T19:25:11.612Z,0
2018-07-26T19:26:11.715Z,0
2018-07-26T19:27:11.677Z,0
2018-07-26T19:28:11.169Z,0
2018-07-26T19:29:11.199Z,0
2018-07-26T19:30:11.967Z,0
2018-07-26T19:31:11.790Z,0
2018-07-26T19:32:11.493Z,0
2018-07-26T19:33:11.466Z,0
2018-07-26T19:34:11.460Z,0
2018-07-26T19:35:11.565Z,0
2018-07-26T19:36:11.863Z,0
2018-07-26T19:37:10.941Z,0
2018-07-26T19:38:11.203Z,0
2018-07-26T19:39:12.006Z,0
2018-07-26T19:40:11.594Z,0
2018-07-26T19:41:11.559Z,0
2018-07-26T19:42:10.989Z,0
2018-07-26T19:43:11.514Z,0
2018-07-26T19:44:11.424Z,0
2018-07-26T19:45:12.150Z,0
2018-07-26T19:46:11.856Z,0
2018-07-26T19:47:11.752Z,0
2018-07-26T19:48:12.104Z,0
2018-07-26T19:49:11.588Z,0
2018-07-26T19:50:12.276Z,0
2018-07-26T19:51:11.369Z,0
2018-07-26T19:52:11.538Z,0
2018-07-26T19:53:11.604Z,0
2018-07-26T19:54:11.855Z,0
2018-07-26T19:55:11.831Z,0
2018-07-26T19:56:11.577Z,0
2018-07-26T19:57:11.281Z,0
2018-07-26T19:58:11.837Z,0
2018-07-26T19:59:11.824Z,0
2018-07-26T20:00:11.895Z,0
2018-07-26T20:01:11.301Z,0
2018-07-26T20:02:11.711Z,0
2018-07-26T20:03:11.395Z,0
2018-07-26T20:04:12.287Z,0
2018-07-26T20:05:12.103Z,0
2018-07-26T20:06:11.597Z,0
2018-07-26T20:07:12.109Z,0
2018-07-26T20:08:11.866Z,0
2018-07-26T20:09:12.162Z,0
2018-07-26T20:10:11.894Z,0
2018-07-26T20:11:11.904Z,0
2018-07-26T20:12:11.889Z,0
2018-07-26T20:13:11.100Z,0
2018-07-26T20:14:11.887Z,0
2018-07-26T20:15:11.876Z,0
2018-07-26T20:16:11.651Z,0
2018-07-26T20:17:11.365Z,0
2018-07-26T20:18:11.629Z,0
2018-07-26T20:19:11.449Z,0
2018-07-26T20:20:11.932Z,0
2018-07-26T20:21:11.948Z,0
2018-07-26T20:22:11.661Z,0
2018-07-26T20:23:11.645Z,0
2018-07-26T20:24:11.706Z,0
2018-07-26T20:25:12.134Z,0
2018-07-26T20:26:11.762Z,0
2018-07-26T20:27:11.712Z,0
2018-07-26T20:28:12.295Z,0
2018-07-26T20:29:11.161Z,0
2018-07-26T20:30:11.751Z,0
2018-07-26T20:31:12.093Z,0
2018-07-26T20:32:11.941Z,0
2018-07-26T20:33:11.858Z,0
2018-07-26T20:34:12.017Z,0
2018-07-26T20:35:11.755Z,0
2018-07-26T20:36:11.799Z,0
2018-07-26T20:37:11.723Z,0
2018-07-26T20:38:11.757Z,0
2018-07-26T20:39:11.559Z,0
2018-07-26T20:40:11.566Z,0
2018-07-26T20:41:12.074Z,0
2018-07-26T20:42:12.017Z,0
2018-07-26T20:43:11.745Z,0
2018-07-26T20:44:12.009Z,0
2018-07-26T20:45:12.312Z,0
2018-07-26T20:46:11.789Z,0
2018-07-26T20:47:11.808Z,0
2018-07-26T20:48:12.330Z,0
2018-07-26T20:49:12.066Z,0
2018-07-26T20:50:12.431Z,0
2018-07-26T20:51:12.078Z,0
2018-07-26T20:52:12.073Z,0
2018-07-26T20:53:11.518Z,0
2018-07-26T20:54:12.565Z,0
2018-07-26T20:55:12.005Z,0
2018-07-26T20:56:11.566Z,0
2018-07-26T20:57:12.297Z,0
2018-07-26T20:58:12.344Z,0
2018-07-26T20:59:11.827Z,0
2018-07-26T21:00:12.325Z,0
2018-07-26T21:01:11.869Z,0
2018-07-26T21:02:11.852Z,0
2018-07-26T21:03:12.305Z,0
2018-07-26T21:04:12.346Z,0
2018-07-26T21:05:12.474Z,0
2018-07-26T21:06:11.800Z,0
2018-07-26T21:07:11.898Z,0
2018-07-26T21:08:12.038Z,0
2018-07-26T21:09:12.376Z,0
2018-07-26T21:10:11.860Z,0
2018-07-26T21:11:11.943Z,0
2018-07-26T21:12:12.079Z,0
2018-07-26T21:13:11.826Z,0
2018-07-26T21:14:11.836Z,0
2018-07-26T21:15:11.833Z,0
2018-07-26T21:16:12.498Z,0
2018-07-26T21:17:11.588Z,0
2018-07-26T21:18:12.399Z,0
2018-07-26T21:19:12.646Z,0
2018-07-26T21:20:11.851Z,0
2018-07-26T21:21:12.381Z,0
2018-07-26T21:22:11.850Z,0
2018-07-26T21:23:12.369Z,0
2018-07-26T21:24:12.371Z,0
2018-07-26T21:25:11.889Z,0
2018-07-26T21:26:11.879Z,0
2018-07-26T21:27:12.383Z,0
2018-07-26T21:28:12.400Z,0
2018-07-26T21:29:12.412Z,0
2018-07-26T21:30:11.934Z,0
2018-07-26T21:31:12.470Z,0
2018-07-26T21:32:12.155Z,0
2018-07-26T21:33:11.917Z,0
2018-07-26T21:34:13.244Z,0
2018-07-26T21:35:11.955Z,0
2018-07-26T21:36:11.958Z,0
2018-07-26T21:37:12.449Z,0
2018-07-26T21:38:11.667Z,0
2018-07-26T21:39:12.235Z,0
2018-07-26T21:40:12.196Z,0
2018-07-26T21:41:12.230Z,0
2018-07-26T21:42:12.465Z,0
2018-07-26T21:43:11.932Z,0
2018-07-26T21:44:12.017Z,0
2018-07-26T21:45:12.224Z,0
2018-07-26T21:46:12.491Z,0
2018-07-26T21:47:12.226Z,0
2018-07-26T21:48:12.246Z,0
2018-07-26T21:49:12.008Z,0
2018-07-26T21:50:11.988Z,0
2018-07-26T21:51:11.726Z,0
2018-07-26T21:52:12.272Z,0
2018-07-26T21:53:11.462Z,0
2018-07-26T21:54:12.294Z,0
2018-07-26T21:55:11.719Z,0
2018-07-26T21:56:11.792Z,0
2018-07-26T21:57:12.245Z,0
2018-07-26T21:58:12.016Z,0
2018-07-26T21:59:13.067Z,0
2018-07-26T22:00:12.253Z,0
2018-07-26T22:01:12.024Z,0
2018-07-26T22:02:12.147Z,0
2018-07-26T22:03:12.058Z,0
2018-07-26T22:04:12.274Z,0
2018-07-26T22:05:12.117Z,0
2018-07-26T22:06:12.117Z,0
2018-07-26T22:07:11.769Z,0
2018-07-26T22:08:11.772Z,0
2018-07-26T22:09:12.038Z,0
2018-07-26T22:10:12.086Z,0
2018-07-26T22:11:12.632Z,0
2018-07-26T22:12:12.565Z,0
2018-07-26T22:13:12.573Z,0
2018-07-26T22:14:12.331Z,0
2018-07-26T22:15:12.421Z,0
2018-07-26T22:48:06.406Z,0
2018-07-26T22:49:06.633Z,0
2018-07-26T22:50:06.412Z,0
2018-07-26T22:51:06.380Z,0
2018-07-26T22:52:06.654Z,0
2018-07-26T22:53:06.128Z,0
2018-07-26T22:54:06.117Z,0
2018-07-26T22:55:06.652Z,0
2018-07-26T22:56:06.472Z,0
2018-07-26T22:57:06.132Z,0
2018-07-26T22:58:06.385Z,0
2018-07-26T22:59:06.384Z,0
2018-07-26T23:00:06.393Z,0
2018-07-26T23:01:06.227Z,0
2018-07-26T23:02:06.904Z,0
2018-07-26T23:03:07.213Z,0
2018-07-26T23:04:06.665Z,0
2018-07-26T23:05:07.286Z,0
2018-07-26T23:06:06.959Z,0
2018-07-26T23:07:06.902Z,0
2018-07-26T23:08:06.414Z,0
2018-07-26T23:09:06.145Z,0
2018-07-26T23:10:06.662Z,0
2018-07-26T23:11:06.676Z,0
2018-07-26T23:12:06.655Z,0
2018-07-26T23:13:06.684Z,0
2018-07-26T23:14:06.411Z,0
2018-07-26T23:15:06.415Z,0
2018-07-26T23:16:06.370Z,0
2018-07-26T23:17:06.449Z,0
2018-07-26T23:18:06.713Z,0
2018-07-26T23:19:06.947Z,0
2018-07-26T23:20:06.428Z,0
2018-07-26T23:21:06.450Z,0
2018-07-26T23:22:06.950Z,0
2018-07-26T23:23:06.701Z,0
2018-07-26T23:24:06.711Z,0
2018-07-26T23:25:06.710Z,0
2018-07-26T23:26:06.511Z,0
2018-07-26T23:27:06.990Z,0
2018-07-26T23:28:06.212Z,0
2018-07-26T23:29:06.719Z,0
2018-07-26T23:30:06.463Z,0
2018-07-26T23:31:06.241Z,0
2018-07-26T23:32:06.752Z,0
2018-07-26T23:33:06.459Z,0
2018-07-26T23:34:06.222Z,0
2018-07-26T23:35:06.219Z,0
2018-07-26T23:36:07.230Z,0
2018-07-26T23:37:06.497Z,0
2018-07-26T23:38:06.738Z,0
2018-07-26T23:39:06.752Z,0
2018-07-26T23:40:06.254Z,0
2018-07-26T23:41:07.113Z,0
2018-07-26T23:42:06.747Z,0
2018-07-26T23:43:07.091Z,0
2018-07-26T23:44:06.531Z,0
2018-07-26T23:45:06.540Z,0
2018-07-26T23:46:06.799Z,0
2018-07-26T23:47:06.554Z,0
2018-07-26T23:48:06.528Z,0
2018-07-26T23:49:06.523Z,0
2018-07-26T23:50:06.524Z,0
2018-07-26T23:51:06.563Z,0
2018-07-26T23:52:06.785Z,0
2018-07-26T23:53:07.061Z,0
2018-07-26T23:54:06.811Z,0
2018-07-26T23:55:06.549Z,0
2018-07-26T23:56:06.601Z,0
2018-07-26T23:57:07.069Z,0
2018-07-26T23:58:06.843Z,0
2018-07-26T23:59:06.590Z,0
